Latest Weather Observations for Outer Harbor (Black Pole)

IDS60901

Issued at 12:31 pm CDT Saturday 25 November 2017 (issued every 10 minutes, with the page automatically refreshed every 10 minutes)

About weather observations | Map of Adelaide area stations | Latest observations for Adelaide area | Other Formats
Station Details ID: 023052 Name: BLACK POLE Lat: -34.73 Lon: 138.47 Height: 6.27 m
Data from the previous 72 hours. | See also: Recent months for locations in South Australia
Date/Time
CDT
Temp
°C
App
Temp
°C
Dew
Point
°C
Rel
Hum
%
Delta-T
°C
Wind Press
QNH
hPa
Press
MSL
hPa
Rain since
9am
mm
Dir  Spd
km/h
Gust
km/h
Spd
kts
Gust
kts
25/12:30pm - - - - - SW 19 20 10 11 - - -
25/12:00pm - - - - - WSW 17 19 9 10 - - -
25/11:30am - - - - - WSW 13 15 7 8 - - -
25/11:00am - - - - - WSW 7 9 4 5 - - -
25/10:30am - - - - - W 6 7 3 4 - - -
25/10:00am - - - - - NNW 6 6 3 3 - - -
25/09:30am - - - - - NNE 4 6 2 3 - - -
25/09:00am - - - - - ESE 4 6 2 3 - - -
25/08:30am - - - - - E 6 9 3 5 - - -
25/08:00am - - - - - ESE 6 9 3 5 - - -
25/07:30am - - - - - SSW 11 13 6 7 - - -
25/07:00am - - - - - SSW 13 17 7 9 - - -
25/06:30am - - - - - SSW 9 11 5 6 - - -
25/06:00am - - - - - SSW 11 13 6 7 - - -
25/05:30am - - - - - WSW 15 17 8 9 - - -
25/05:00am - - - - - WNW 6 9 3 5 - - -
25/04:30am - - - - - NNW 7 11 4 6 - - -
25/04:00am - - - - - N 4 7 2 4 - - -
25/03:30am - - - - - SSW 7 9 4 5 - - -
25/03:00am - - - - - SSW 11 13 6 7 - - -
25/02:30am - - - - - SSW 15 17 8 9 - - -
25/02:00am - - - - - SW 20 22 11 12 - - -
25/01:30am - - - - - SSW 15 17 8 9 - - -
25/01:00am - - - - - S 13 15 7 8 - - -
25/12:30am - - - - - S 11 13 6 7 - - -
25/12:00am - - - - - SSE 7 9 4 5 - - -
 
Date/Time
CDT
Temp
°C
App
Temp
°C
Dew
Point
°C
Rel
Hum
%
Delta-T
°C
Wind Press
QNH
hPa
Press
MSL
hPa
Rain since
9am
mm
Dir  Spd
km/h
Gust
km/h
Spd
kts
Gust
kts
24/11:30pm - - - - - SSE 15 19 8 10 - - -
24/11:00pm - - - - - SSE 20 24 11 13 - - -
24/10:30pm - - - - - S 24 28 13 15 - - -
24/10:00pm - - - - - SSW 22 28 12 15 - - -
24/09:30pm - - - - - SSW 13 17 7 9 - - -
24/09:00pm - - - - - SSW 17 20 9 11 - - -
24/08:30pm - - - - - SSW 28 35 15 19 - - -
24/08:00pm - - - - - S 26 28 14 15 - - -
24/07:30pm - - - - - S 28 32 15 17 - - -
24/07:00pm - - - - - S 26 32 14 17 - - -
24/06:30pm - - - - - SSW 28 33 15 18 - - -
24/06:00pm - - - - - SW 28 33 15 18 - - -
24/05:30pm - - - - - SSW 26 28 14 15 - - -
24/05:00pm - - - - - SW 24 26 13 14 - - -
24/04:30pm - - - - - SSW 22 26 12 14 - - -
24/04:00pm - - - - - SW 17 19 9 10 - - -
24/03:30pm - - - - - SSW 17 20 9 11 - - -
24/03:00pm - - - - - S 22 24 12 13 - - -
24/02:30pm - - - - - SSW 22 26 12 14 - - -
24/02:00pm - - - - - SSW 22 26 12 14 - - -
24/01:30pm - - - - - SSW 20 24 11 13 - - -
24/01:00pm - - - - - SW 15 17 8 9 - - -
24/12:30pm - - - - - SSW 17 19 9 10 - - -
24/12:00pm - - - - - SSW 19 22 10 12 - - -
24/11:30am - - - - - SW 17 19 9 10 - - -
24/11:00am - - - - - SW 17 19 9 10 - - -
24/10:30am - - - - - W 17 19 9 10 - - -
24/10:00am - - - - - WNW 11 13 6 7 - - -
24/09:30am - - - - - WNW 9 11 5 6 - - -
24/09:00am - - - - - WNW 9 11 5 6 - - -
24/08:30am - - - - - W 6 7 3 4 - - -
24/08:00am - - - - - CALM 0 4 0 2 - - -
24/07:30am - - - - - S 6 9 3 5 - - -
24/07:00am - - - - - S 11 13 6 7 - - -
24/06:30am - - - - - ESE 6 7 3 4 - - -
24/06:00am - - - - - SE 6 7 3 4 - - -
24/05:30am - - - - - E 2 6 1 3 - - -
24/05:00am - - - - - E 6 6 3 3 - - -
24/04:30am - - - - - ENE 13 15 7 8 - - -
24/04:00am - - - - - ESE 11 13 6 7 - - -
24/03:30am - - - - - E 9 11 5 6 - - -
24/03:00am - - - - - N 13 15 7 8 - - -
24/02:30am - - - - - E 4 4 2 2 - - -
24/02:00am - - - - - NE 13 17 7 9 - - -
24/01:30am - - - - - ENE 13 17 7 9 - - -
24/01:00am - - - - - SSE 13 15 7 8 - - -
24/12:30am - - - - - S 15 17 8 9 - - -
24/12:00am - - - - - S 7 9 4 5 - - -
 
Date/Time
CDT
Temp
°C
App
Temp
°C
Dew
Point
°C
Rel
Hum
%
Delta-T
°C
Wind Press
QNH
hPa
Press
MSL
hPa
Rain since
9am
mm
Dir  Spd
km/h
Gust
km/h
Spd
kts
Gust
kts
23/11:30pm - - - - - SSE 7 9 4 5 - - -
23/11:00pm - - - - - SE 9 13 5 7 - - -
23/10:30pm - - - - - SE 13 15 7 8 - - -
23/10:00pm - - - - - ESE 17 20 9 11 - - -
23/09:30pm - - - - - SE 13 17 7 9 - - -
23/09:00pm - - - - - SSE 15 17 8 9 - - -
23/08:30pm - - - - - S 17 20 9 11 - - -
23/08:00pm - - - - - SSW 19 20 10 11 - - -
23/07:30pm - - - - - SW 20 22 11 12 - - -
23/07:00pm - - - - - SW 24 30 13 16 - - -
23/06:30pm - - - - - SSW 19 28 10 15 - - -
23/06:00pm - - - - - ENE 30 37 16 20 - - -
23/05:30pm - - - - - NNE 24 28 13 15 - - -
23/05:00pm - - - - - NNE 26 35 14 19 - - -
23/04:30pm - - - - - NNE 28 35 15 19 - - -
23/04:00pm - - - - - NE 24 35 13 19 - - -
23/03:30pm - - - - - ENE 24 28 13 15 - - -
23/03:00pm - - - - - ENE 20 26 11 14 - - -
23/02:30pm - - - - - E 24 28 13 15 - - -
23/02:00pm - - - - - E 17 19 9 10 - - -
23/01:30pm - - - - - SSW 6 11 3 6 - - -
23/01:00pm - - - - - WNW 26 33 14 18 - - -
23/12:30pm - - - - - WSW 15 19 8 10 - - -
23/12:00pm - - - - - W 26 39 14 21 - - -
23/11:30am - - - - - WNW 22 28 12 15 - - -
23/11:00am - - - - - WNW 24 30 13 16 - - -
23/10:30am - - - - - NW 15 20 8 11 - - -
23/10:00am - - - - - NNW 15 17 8 9 - - -
23/09:30am - - - - - NNW 24 32 13 17 - - -
23/09:00am - - - - - NNE 15 19 8 10 - - -
23/08:30am - - - - - NE 11 15 6 8 - - -
23/08:00am - - - - - ENE 13 17 7 9 - - -
23/07:30am - - - - - ENE 17 19 9 10 - - -
23/07:00am - - - - - NE 19 22 10 12 - - -
23/06:30am - - - - - CALM 0 0 0 0 - - -
23/06:00am - - - - - SE 4 6 2 3 - - -
23/05:30am - - - - - SE 9 11 5 6 - - -
23/05:00am - - - - - ESE 13 15 7 8 - - -
23/04:30am - - - - - E 19 22 10 12 - - -
23/04:00am - - - - - NE 19 22 10 12 - - -
23/03:30am - - - - - ENE 15 19 8 10 - - -
23/03:00am - - - - - SE 7 9 4 5 - - -
23/02:30am - - - - - SW 15 17 8 9 - - -
23/02:00am - - - - - W 13 20 7 11 - - -
23/01:30am - - - - - NNW 15 22 8 12 - - -
23/01:00am - - - - - E 19 24 10 13 - - -
23/12:30am - - - - - NNE 15 22 8 12 - - -
23/12:00am - - - - - NE 15 17 8 9 - - -
 
Date/Time
CDT
Temp
°C
App
Temp
°C
Dew
Point
°C
Rel
Hum
%
Delta-T
°C
Wind Press
QNH
hPa
Press
MSL
hPa
Rain since
9am
mm
Dir  Spd
km/h
Gust
km/h
Spd
kts
Gust
kts
22/11:30pm - - - - - E 13 17 7 9 - - -
22/11:00pm - - - - - ESE 19 22 10 12 - - -
22/10:30pm - - - - - ESE 30 35 16 19 - - -
22/10:00pm - - - - - ENE 24 32 13 17 - - -
22/09:30pm - - - - - NE 24 32 13 17 - - -
22/09:00pm - - - - - NNW 15 20 8 11 - - -
22/08:30pm - - - - - NNW 17 22 9 12 - - -
22/08:00pm - - - - - N 20 32 11 17 - - -
22/07:30pm - - - - - SE 6 7 3 4 - - -
22/07:00pm - - - - - WSW 9 15 5 8 - - -
22/06:30pm - - - - - SW 13 22 7 12 - - -
22/06:00pm - - - - - SSW 13 17 7 9 - - -
22/05:30pm - - - - - S 17 20 9 11 - - -
22/05:00pm - - - - - S 22 26 12 14 - - -
22/04:30pm - - - - - S 22 26 12 14 - - -
22/04:00pm - - - - - S 22 26 12 14 - - -
22/03:30pm - - - - - S 22 26 12 14 - - -
22/03:00pm - - - - - S 28 32 15 17 - - -
22/02:30pm - - - - - SSW 28 32 15 17 - - -
22/02:00pm - - - - - SSW 35 46 19 25 - - -
22/01:50pm - - - - - SW 32 44 17 24 - - -
22/01:30pm - - - - - W 35 41 19 22 - - -
22/01:06pm - - - - - WNW 28 44 15 24 - - -
22/01:00pm - - - - - WNW 19 24 10 13 - - -

Latest Capital City Observations: Canberra | Sydney | Melbourne | Brisbane | Adelaide | Perth | Hobart | Darwin

Other Formats:

Comma delimited format used in spreadsheet applications
http://www.bom.gov.au/fwo/IDS60901/IDS60901.95675.axf

JavaScript Object Notation format (JSON) in row-major order
http://www.bom.gov.au/fwo/IDS60901/IDS60901.95675.json